Time;durP1;ratioP1;P1;durP2;ratioP2;P2;SDS_P1;SDS_P2;PMS_P1;PMS_P2;Temp;Humidity;BMP_temperature;BMP_pressure;BME280_temperature;BME280_humidity;BME280_pressure;Samples;Min_cycle;Max_cycle;Signal;HPM_P1;HPM_P2
2023/06/23 00:01:20;;;;;;;4.60;3.90;;;;;;;23.55;100.00;97393.94;1710399;75;672394;-72
2023/06/23 00:03:50;;;;;;;3.70;3.40;;;;;;;23.57;100.00;97391.31;1701831;75;732212;-75
2023/06/23 00:06:20;;;;;;;4.60;3.80;;;;;;;23.54;100.00;97388.91;1710991;75;679466;-76
2023/06/23 00:08:50;;;;;;;4.00;3.60;;;;;;;23.53;100.00;97381.84;1701085;75;752524;-74
2023/06/23 00:11:21;;;;;;;3.55;3.20;;;;;;;23.43;100.00;97372.59;1710735;75;674465;-73
2023/06/23 00:13:52;;;;;;;4.35;3.50;;;;;;;23.49;100.00;97373.13;1701689;75;736488;-77
2023/06/23 00:16:25;;;;;;;3.65;3.00;;;;;;;23.41;100.00;97364.09;1710265;75;668851;-73
2023/06/23 00:18:55;;;;;;;5.55;3.65;;;;;;;23.38;100.00;97368.75;1701710;75;739302;-76
2023/06/23 00:21:26;;;;;;;3.85;3.00;;;;;;;23.33;100.00;97373.25;1710317;75;672535;-74
2023/06/23 00:23:56;;;;;;;3.80;3.30;;;;;;;23.33;100.00;97366.91;1701857;75;738007;-74
2023/06/23 00:26:27;;;;;;;4.30;3.60;;;;;;;23.28;100.00;97367.88;1710894;75;672426;-74
2023/06/23 00:28:57;;;;;;;4.15;3.60;;;;;;;23.25;100.00;97369.03;1702214;75;742043;-73
2023/06/23 00:31:30;;;;;;;3.70;3.05;;;;;;;23.19;100.00;97360.91;1710613;75;678271;-73
2023/06/23 00:34:00;;;;;;;3.60;3.30;;;;;;;23.18;100.00;97356.59;1701478;75;739982;-75
2023/06/23 00:36:31;;;;;;;4.70;3.30;;;;;;;23.14;100.00;97348.63;1710234;75;670765;-75
2023/06/23 00:39:01;;;;;;;3.75;3.30;;;;;;;23.12;100.00;97350.53;1701480;75;742033;-72
2023/06/23 00:41:31;;;;;;;3.50;3.10;;;;;;;23.05;100.00;97351.31;1708144;75;904480;-73
2023/06/23 00:44:02;;;;;;;3.85;3.45;;;;;;;23.06;100.00;97347.22;1702308;75;736352;-74
2023/06/23 00:46:34;;;;;;;3.60;3.25;;;;;;;23.01;100.00;97345.38;1710964;75;668985;-73
2023/06/23 00:49:05;;;;;;;3.45;3.15;;;;;;;22.98;100.00;97347.25;1701205;75;741738;-72
2023/06/23 00:51:35;;;;;;;3.60;3.10;;;;;;;22.96;100.00;97352.63;1709124;75;805672;-72
2023/06/23 00:54:07;;;;;;;4.15;3.75;;;;;;;22.85;100.00;97353.84;1700971;75;752943;-73
2023/06/23 00:56:38;;;;;;;4.30;3.60;;;;;;;22.84;100.00;97349.53;1709898;75;672820;-75
2023/06/23 00:59:08;;;;;;;4.50;3.75;;;;;;;22.74;100.00;97351.47;1700661;75;739218;-74
2023/06/23 01:01:41;;;;;;;4.25;3.85;;;;;;;22.72;100.00;97346.44;1708062;75;872453;-73
2023/06/23 01:04:12;;;;;;;5.25;4.65;;;;;;;22.62;100.00;97340.00;1701636;75;737087;-76
2023/06/23 01:06:50;;;;;;;6.70;4.05;;;;;;;22.66;100.00;97345.94;1709946;75;673432;-72
2023/06/23 01:09:31;;;;;;;4.40;4.00;;;;;;;22.65;100.00;97344.44;1700950;75;766204;-73
2023/06/23 01:12:12;;;;;;;4.30;3.90;;;;;;;22.59;100.00;97341.16;1702044;75;677256;-74
2023/06/23 01:14:55;;;;;;;6.20;4.70;;;;;;;22.44;100.00;97344.75;1709807;75;680935;-73
2023/06/23 01:17:34;;;;;;;5.50;4.90;;;;;;;22.41;100.00;97356.28;1701185;75;738126;-75
2023/06/23 01:20:21;;;;;;;4.30;3.90;;;;;;;22.48;100.00;97344.34;1702417;75;676293;-74
2023/06/23 01:23:13;;;;;;;;;;;;;;;22.41;100.00;97340.28;1710777;75;670616;-73
2023/06/23 01:25:56;;;;;;;5.70;4.50;;;;;;;22.41;100.00;97342.34;1701370;75;760358;-73
2023/06/23 01:28:52;;;;;;;4.80;4.40;;;;;;;22.33;100.00;97348.69;1688047;75;1908518;-75
2023/06/23 01:31:32;;;;;;;5.30;4.30;;;;;;;22.33;100.00;97342.38;1702409;75;679630;-76
2023/06/23 01:34:09;;;;;;;5.35;4.65;;;;;;;22.24;100.00;97348.53;1709770;75;683099;-73
2023/06/23 01:36:45;;;;;;;8.20;7.40;;;;;;;22.08;100.00;97345.78;1701921;75;677504;-73
2023/06/23 01:39:19;;;;;;;7.50;6.60;;;;;;;22.24;100.00;97354.13;1707827;75;865300;-76
2023/06/23 01:41:56;;;;;;;6.20;5.60;;;;;;;22.20;100.00;97357.31;1701422;75;740445;-72
2023/06/23 01:44:30;;;;;;;5.65;5.05;;;;;;;22.24;100.00;97357.66;1702337;75;676578;-72
2023/06/23 01:47:07;;;;;;;10.80;7.80;;;;;;;22.09;100.00;97361.22;1709946;75;678366;-74
2023/06/23 01:49:39;;;;;;;8.90;7.50;;;;;;;22.10;100.00;97354.34;1701796;75;681656;-73
2023/06/23 01:52:11;;;;;;;6.70;5.80;;;;;;;22.11;100.00;97355.81;1708533;75;809834;-72
2023/06/23 01:54:44;;;;;;;6.75;5.70;;;;;;;22.06;100.00;97356.75;1702235;75;675104;-73
2023/06/23 01:57:18;;;;;;;5.60;5.00;;;;;;;22.07;100.00;97363.81;1708868;75;771729;-73
2023/06/23 01:59:53;;;;;;;4.90;4.50;;;;;;;22.07;100.00;97369.38;1702295;75;677687;-73
2023/06/23 02:02:26;;;;;;;5.40;4.70;;;;;;;22.04;100.00;97358.63;1710573;75;676546;-72
2023/06/23 02:04:58;;;;;;;4.15;3.75;;;;;;;22.04;100.00;97367.00;1700746;75;737185;-71
2023/06/23 02:07:30;;;;;;;4.80;3.90;;;;;;;22.00;100.00;97370.16;1709914;75;680117;-72
2023/06/23 02:10:02;;;;;;;3.85;3.55;;;;;;;21.98;100.00;97372.00;1701014;75;741400;-75
2023/06/23 02:12:34;;;;;;;3.90;3.50;;;;;;;21.95;100.00;97373.88;1709635;75;695230;-73
2023/06/23 02:15:10;;;;;;;4.90;4.40;;;;;;;21.91;100.00;97382.63;1701323;75;736223;-73
2023/06/23 02:17:41;;;;;;;6.15;4.30;;;;;;;21.90;100.00;97380.41;1702151;75;672022;-71
2023/06/23 02:20:15;;;;;;;4.60;4.20;;;;;;;21.85;100.00;97379.28;1695871;75;1854752;-73
2023/06/23 02:22:50;;;;;;;5.20;4.60;;;;;;;21.77;100.00;97384.16;1701879;75;672377;-75
2023/06/23 02:25:22;;;;;;;4.60;4.20;;;;;;;21.78;100.00;97382.81;1710240;75;679266;-75
2023/06/23 02:27:53;;;;;;;4.35;3.80;;;;;;;21.75;100.00;97377.66;1701599;75;671706;-73
2023/06/23 02:30:26;;;;;;;4.50;3.90;;;;;;;21.78;100.00;97382.09;1708493;75;813584;-72
2023/06/23 02:32:57;;;;;;;5.80;4.00;;;;;;;21.65;100.00;97386.56;1701930;75;678636;-74
2023/06/23 02:35:27;;;;;;;4.60;4.20;;;;;;;21.70;100.00;97393.25;1709809;75;674487;-75
2023/06/23 02:38:02;;;;;;;6.00;5.40;;;;;;;21.64;100.00;97392.69;1698919;75;949392;-72
2023/06/23 02:40:36;;;;;;;5.05;4.60;;;;;;;21.62;100.00;97386.94;1710257;75;691621;-75
2023/06/23 02:43:14;;;;;;;4.30;3.90;;;;;;;21.62;100.00;97389.72;1701800;75;739123;-73
2023/06/23 02:45:52;;;;;;;4.70;4.10;;;;;;;21.56;100.00;97387.13;1701340;75;818215;-75
2023/06/23 02:48:26;;;;;;;4.40;4.00;;;;;;;21.54;100.00;97398.06;1711033;75;676195;-75
2023/06/23 02:51:00;;;;;;;3.90;3.50;;;;;;;21.55;100.00;97391.22;1702811;75;689188;-76
2023/06/23 02:53:41;;;;;;;4.60;4.20;;;;;;;21.46;100.00;97402.91;1710660;75;668077;-73
2023/06/23 02:56:18;;;;;;;5.35;4.85;;;;;;;21.39;100.00;97393.25;1701490;75;745819;-72
2023/06/23 02:58:52;;;;;;;5.15;4.65;;;;;;;21.41;100.00;97403.84;1702516;75;678872;-73
2023/06/23 03:01:26;;;;;;;6.00;5.20;;;;;;;21.37;100.00;97386.72;1707259;75;921233;-73
2023/06/23 03:03:58;;;;;;;5.15;4.65;;;;;;;21.33;100.00;97389.88;1702412;75;670588;-73
2023/06/23 03:06:28;;;;;;;5.90;5.00;;;;;;;21.31;100.00;97400.84;1709870;75;674535;-72
2023/06/23 03:08:58;;;;;;;5.10;4.60;;;;;;;21.28;100.00;97404.72;1701216;75;758861;-72
2023/06/23 03:11:29;;;;;;;4.60;4.20;;;;;;;21.33;100.00;97408.63;1710965;75;670921;-74
2023/06/23 03:13:59;;;;;;;5.80;4.80;;;;;;;21.31;100.00;97409.19;1703076;75;674748;-72
2023/06/23 03:16:43;;;;;;;5.30;4.70;;;;;;;21.30;100.00;97402.13;1711017;75;678260;-74
2023/06/23 03:19:28;;;;;;;4.95;4.45;;;;;;;21.33;100.00;97405.84;1701737;75;747583;-75
2023/06/23 03:22:08;;;;;;;6.35;5.50;;;;;;;21.25;100.00;97403.06;1701628;75;700391;-73
2023/06/23 03:24:44;;;;;;;6.95;6.25;;;;;;;21.11;100.00;97421.94;1710869;75;668495;-73
2023/06/23 03:27:16;;;;;;;6.55;5.85;;;;;;;21.21;100.00;97422.16;1701929;75;734143;-75
2023/06/23 03:30:01;;;;;;;6.20;5.60;;;;;;;21.22;100.00;97426.44;1710533;75;664888;-73
2023/06/23 03:32:39;;;;;;;5.50;5.00;;;;;;;21.25;100.00;97422.53;1702360;75;744264;-74
2023/06/23 03:35:15;;;;;;;5.60;4.90;;;;;;;21.20;100.00;97424.19;1702111;75;766978;-74
2023/06/23 03:37:51;;;;;;;5.00;4.45;;;;;;;21.26;100.00;97424.78;1710988;75;685966;-73
2023/06/23 03:40:24;;;;;;;4.60;4.20;;;;;;;21.26;100.00;97430.34;1702601;75;674992;-73
2023/06/23 03:42:59;;;;;;;5.30;4.80;;;;;;;21.24;100.00;97430.16;1711156;75;670310;-72
2023/06/23 03:45:31;;;;;;;4.70;4.30;;;;;;;21.22;100.00;97420.88;1702257;75;678395;-72
2023/06/23 03:48:11;;;;;;;4.40;4.00;;;;;;;21.26;100.00;97429.59;1710879;75;674823;-72
2023/06/23 03:50:44;;;;;;;4.40;4.00;;;;;;;21.27;100.00;97440.19;1702473;75;754433;-76
2023/06/23 03:53:16;;;;;;;6.20;5.60;;;;;;;21.08;100.00;97441.81;1711096;75;676495;-74
2023/06/23 03:55:49;;;;;;;8.55;7.75;;;;;;;21.19;100.00;97433.09;1702448;75;733135;-74
2023/06/23 03:58:21;;;;;;;6.60;6.00;;;;;;;21.27;100.00;97442.22;1711868;75;689237;-73
2023/06/23 04:00:53;;;;;;;5.65;5.15;;;;;;;21.30;100.00;97445.94;1703000;75;753930;-74
2023/06/23 04:03:29;;;;;;;5.60;5.10;;;;;;;21.35;100.00;97450.59;1711754;75;677250;-73
2023/06/23 04:06:01;;;;;;;7.45;6.65;;;;;;;21.24;100.00;97458.00;1702553;75;754445;-75
2023/06/23 04:08:35;;;;;;;6.60;6.00;;;;;;;21.36;100.00;97458.38;1710368;75;685393;-72
2023/06/23 04:11:07;;;;;;;5.55;5.05;;;;;;;21.34;100.00;97454.69;1701506;75;746588;-73
2023/06/23 04:13:39;;;;;;;5.50;5.00;;;;;;;21.36;100.00;97454.84;1710511;75;672346;-73
2023/06/23 04:16:11;;;;;;;5.35;4.85;;;;;;;21.31;100.00;97450.97;1701587;75;752109;-74
2023/06/23 04:18:47;;;;;;;5.50;4.90;;;;;;;21.40;100.00;97456.00;1710698;75;682671;-76
2023/06/23 04:21:20;;;;;;;5.20;4.60;;;;;;;21.46;100.00;97453.03;1700670;75;803713;-75
2023/06/23 04:23:51;;;;;;;4.85;4.35;;;;;;;21.52;100.00;97456.38;1709610;75;713583;-76
2023/06/23 04:26:22;;;;;;;5.35;4.45;;;;;;;21.53;100.00;97463.44;1701303;75;742971;-75
2023/06/23 04:28:55;;;;;;;7.20;5.60;;;;;;;21.49;100.00;97463.81;1709833;75;673668;-74
2023/06/23 04:31:28;;;;;;;7.00;6.40;;;;;;;21.51;100.00;97457.69;1701612;75;743211;-76
2023/06/23 04:34:01;;;;;;;7.10;6.20;;;;;;;21.64;100.00;97462.34;1709533;75;771100;-76
2023/06/23 04:36:47;;;;;;;7.65;6.20;;;;;;;21.74;100.00;97454.16;1701291;75;741894;-76
2023/06/23 04:39:27;;;;;;;5.90;5.30;;;;;;;21.85;100.00;97451.75;1698958;75;908397;-75
2023/06/23 04:42:03;;;;;;;5.50;5.00;;;;;;;21.89;100.00;97452.13;1708607;75;810880;-77
2023/06/23 04:44:40;;;;;;;7.65;6.90;;;;;;;21.89;100.00;97440.97;1701178;75;755286;-70
2023/06/23 04:47:12;;;;;;;6.30;5.70;;;;;;;22.06;100.00;97445.22;1702624;75;673875;-77
2023/06/23 04:49:47;;;;;;;5.60;5.10;;;;;;;22.16;100.00;97450.97;1710307;75;715838;-73
2023/06/23 04:52:20;;;;;;;4.80;4.40;;;;;;;22.25;100.00;97450.44;1701429;75;762460;-74
2023/06/23 04:54:54;;;;;;;4.95;4.55;;;;;;;22.27;100.00;97448.56;1710596;75;677288;-73
2023/06/23 04:57:30;;;;;;;9.00;8.10;;;;;;;22.27;100.00;97456.16;1702190;75;683864;-75
2023/06/23 05:00:04;;;;;;;10.50;9.00;;;;;;;22.31;100.00;97460.06;1710566;75;674767;-74
2023/06/23 05:02:37;;;;;;;12.05;10.45;;;;;;;22.34;100.00;97461.00;1701043;75;753134;-73
2023/06/23 05:05:14;;;;;;;9.90;9.00;;;;;;;22.59;100.00;97471.53;1710714;75;683241;-74
2023/06/23 05:07:46;;;;;;;8.90;8.10;;;;;;;22.63;100.00;97475.41;1700502;75;762974;-74
2023/06/23 05:10:19;;;;;;;7.90;6.80;;;;;;;22.75;100.00;97476.50;1709602;75;727265;-73
2023/06/23 05:12:52;;;;;;;8.30;7.50;;;;;;;22.81;100.00;97487.44;1701300;75;758491;-75
2023/06/23 05:15:24;;;;;;;7.15;6.45;;;;;;;22.92;100.00;97489.06;1710622;75;678522;-73
2023/06/23 05:18:00;;;;;;;8.20;7.40;;;;;;;22.97;100.00;97493.72;1702277;75;716243;-75
2023/06/23 05:20:35;;;;;;;7.30;6.60;;;;;;;23.13;100.00;97491.63;1702727;75;689088;-73
2023/06/23 05:23:07;;;;;;;6.00;5.50;;;;;;;23.26;100.00;97496.97;1710532;75;675404;-75
2023/06/23 05:25:38;;;;;;;8.90;8.00;;;;;;;23.19;100.00;97508.91;1701230;75;804172;-74
2023/06/23 05:28:09;;;;;;;9.50;8.60;;;;;;;23.32;100.00;97499.53;1710164;75;706349;-73
2023/06/23 05:30:40;;;;;;;9.95;8.10;;;;;;;23.39;100.00;97493.88;1699730;75;921047;-74
2023/06/23 05:33:13;;;;;;;8.30;7.00;;;;;;;23.51;100.00;97496.97;1710676;75;672558;-75
2023/06/23 05:35:47;;;;;;;6.80;6.20;;;;;;;23.63;100.00;97491.69;1702779;75;675572;-78
2023/06/23 05:38:20;;;;;;;6.80;6.10;;;;;;;23.73;100.00;97491.81;1710296;75;666565;-72
2023/06/23 05:40:51;;;;;;;6.80;6.20;;;;;;;23.80;100.00;97493.81;1699412;75;835142;-74
2023/06/23 05:43:22;;;;;;;6.35;5.75;;;;;;;23.94;100.00;97499.88;1710127;75;672357;-75
2023/06/23 05:45:56;;;;;;;6.60;6.00;;;;;;;24.06;100.00;97503.69;1701923;75;669264;-77
2023/06/23 05:48:32;;;;;;;10.50;9.25;;;;;;;24.10;100.00;97497.66;1710064;75;666025;-74
2023/06/23 05:51:10;;;;;;;10.90;9.40;;;;;;;24.34;100.00;97507.34;1701103;75;747310;-73
2023/06/23 05:53:42;;;;;;;13.95;9.70;;;;;;;24.30;100.00;97509.81;1701868;75;699368;-73
2023/06/23 05:56:18;;;;;;;8.20;7.40;;;;;;;24.56;100.00;97520.41;1709820;75;676220;-76
2023/06/23 05:58:51;;;;;;;11.10;8.10;;;;;;;24.65;100.00;97528.13;1701436;75;682134;-75
2023/06/23 06:01:25;;;;;;;7.20;6.20;;;;;;;24.75;100.00;97528.22;1710069;75;703723;-74
2023/06/23 06:04:04;;;;;;;12.70;9.20;;;;;;;24.79;100.00;97534.13;1701900;75;674719;-75
2023/06/23 06:06:39;;;;;;;9.70;8.30;;;;;;;24.94;100.00;97532.47;1709653;75;681989;-77
2023/06/23 06:09:14;;;;;;;7.95;7.15;;;;;;;25.12;100.00;97539.53;1700993;75;753058;-75
2023/06/23 06:11:48;;;;;;;8.30;6.70;;;;;;;25.37;100.00;97542.22;1710397;75;676420;-76
2023/06/23 06:14:19;;;;;;;7.10;6.10;;;;;;;25.51;100.00;97540.53;1701385;75;751421;-74
2023/06/23 06:16:52;;;;;;;10.20;7.90;;;;;;;25.59;100.00;97548.09;1709941;75;684695;-75
2023/06/23 06:19:25;;;;;;;7.45;5.70;;;;;;;25.76;100.00;97547.28;1701306;75;751078;-75
2023/06/23 06:22:01;;;;;;;10.70;8.00;;;;;;;25.64;100.00;97555.50;1709935;75;672945;-77
2023/06/23 06:24:34;;;;;;;9.90;7.80;;;;;;;25.77;100.00;97560.75;1701555;75;745854;-76
2023/06/23 06:27:05;;;;;;;7.70;6.30;;;;;;;26.04;100.00;97562.78;1709722;75;668517;-76
2023/06/23 06:29:38;;;;;;;8.30;6.65;;;;;;;26.12;100.00;97569.00;1701041;75;738733;-75
2023/06/23 06:32:12;;;;;;;7.10;6.40;;;;;;;26.07;100.00;97564.44;1710448;75;675316;-76
2023/06/23 06:34:45;;;;;;;6.00;5.40;;;;;;;26.30;100.00;97572.47;1701257;75;746538;-75
2023/06/23 06:37:23;;;;;;;8.20;6.60;;;;;;;26.21;100.00;97571.13;1709776;75;688332;-76
2023/06/23 06:39:55;;;;;;;7.30;5.30;;;;;;;26.31;100.00;97571.91;1701356;75;746834;-76
2023/06/23 06:42:26;;;;;;;6.00;5.40;;;;;;;26.22;100.00;97572.63;1707953;75;864754;-74
2023/06/23 06:44:56;;;;;;;8.10;6.15;;;;;;;26.25;100.00;97579.84;1699995;75;749237;-76
2023/06/23 06:47:31;;;;;;;5.25;4.70;;;;;;;26.53;100.00;97575.66;1710593;75;671702;-74
2023/06/23 06:50:02;;;;;;;7.60;6.25;;;;;;;26.45;100.00;97577.09;1701536;75;755877;-74
2023/06/23 06:52:36;;;;;;;12.40;9.30;;;;;;;26.50;100.00;97568.38;1710140;75;686608;-75
2023/06/23 06:55:09;;;;;;;10.60;8.70;;;;;;;26.56;100.00;97568.13;1700743;75;745755;-76
2023/06/23 06:57:40;;;;;;;11.60;9.45;;;;;;;26.71;100.00;97558.69;1710545;75;673520;-76
2023/06/23 07:00:12;;;;;;;13.70;10.35;;;;;;;26.75;100.00;97565.34;1701603;75;743369;-76
2023/06/23 07:02:42;;;;;;;10.05;8.60;;;;;;;27.07;100.00;97568.31;1710341;75;673698;-72
2023/06/23 07:05:16;;;;;;;10.30;9.20;;;;;;;27.07;100.00;97566.22;1699489;75;832668;-76
2023/06/23 07:07:49;;;;;;;9.80;8.60;;;;;;;27.03;100.00;97573.63;1710000;75;672224;-73
2023/06/23 07:10:20;;;;;;;8.70;7.50;;;;;;;27.37;95.68;97569.78;1685367;75;1977985;-76
2023/06/23 07:12:50;;;;;;;7.70;6.90;;;;;;;27.41;95.72;97578.50;1709417;75;682022;-74
2023/06/23 07:15:20;;;;;;;12.10;8.65;;;;;;;27.16;94.62;97579.53;1700801;75;760328;-77
2023/06/23 07:17:50;;;;;;;8.65;7.40;;;;;;;27.32;94.90;97579.25;1709604;75;674097;-75
2023/06/23 07:20:20;;;;;;;7.30;6.60;;;;;;;27.25;98.14;97585.75;1701415;75;751455;-75
2023/06/23 07:22:53;;;;;;;11.75;8.55;;;;;;;26.93;96.97;97594.03;1710243;75;678393;-76
2023/06/23 07:25:23;;;;;;;11.00;9.00;;;;;;;26.91;100.00;97593.88;1702143;75;754107;-75
2023/06/23 07:27:53;;;;;;;11.50;7.85;;;;;;;26.96;98.26;97598.47;1698295;75;1703227;-76
2023/06/23 07:30:24;;;;;;;10.40;6.85;;;;;;;27.17;95.80;97585.91;1701714;75;735520;-75
2023/06/23 07:32:54;;;;;;;8.35;6.25;;;;;;;27.31;96.05;97584.13;1706313;75;983278;-75
2023/06/23 07:35:24;;;;;;;10.05;6.50;;;;;;;27.27;94.70;97586.66;1701790;75;732582;-74
2023/06/23 07:37:57;;;;;;;6.80;5.85;;;;;;;27.50;93.31;97591.81;1709617;75;678422;-74
2023/06/23 07:40:27;;;;;;;10.10;7.10;;;;;;;27.40;93.78;97597.44;1699384;75;845909;-75
2023/06/23 07:42:57;;;;;;;9.40;7.30;;;;;;;27.48;93.81;97591.66;1709701;75;676099;-74
2023/06/23 07:45:27;;;;;;;9.00;7.00;;;;;;;27.48;94.67;97586.03;1701514;75;739724;-77
2023/06/23 07:47:59;;;;;;;10.10;6.80;;;;;;;27.39;94.20;97589.59;1710182;75;705132;-77
2023/06/23 07:50:29;;;;;;;12.40;7.45;;;;;;;27.53;95.73;97598.31;1701170;75;742366;-76
2023/06/23 07:53:02;;;;;;;7.80;6.55;;;;;;;27.73;93.13;97596.19;1710172;75;674580;-73
2023/06/23 07:55:32;;;;;;;7.30;6.50;;;;;;;27.69;90.62;97598.72;1701593;75;747888;-75
2023/06/23 07:58:02;;;;;;;8.05;7.05;;;;;;;27.72;89.93;97587.00;1709866;75;675174;-75
2023/06/23 08:00:32;;;;;;;10.85;7.75;;;;;;;27.80;91.77;97586.84;1701411;75;750685;-74
2023/06/23 08:03:02;;;;;;;9.45;7.40;;;;;;;28.01;90.99;97583.38;1710555;75;672857;-77
2023/06/23 08:05:33;;;;;;;11.85;8.10;;;;;;;28.06;87.79;97571.06;1701875;75;744126;-75
2023/06/23 08:08:06;;;;;;;10.15;7.55;;;;;;;28.03;85.39;97584.28;1709008;75;798354;-74
2023/06/23 08:10:39;;;;;;;9.00;7.15;;;;;;;28.26;84.55;97580.16;1701304;75;746213;-77
2023/06/23 08:13:09;;;;;;;9.15;6.45;;;;;;;28.35;85.66;97584.25;1710412;75;686580;-76
2023/06/23 08:15:40;;;;;;;11.30;7.55;;;;;;;28.43;82.58;97588.38;1701223;75;742223;-77
2023/06/23 08:18:11;;;;;;;8.70;7.20;;;;;;;28.44;82.09;97575.03;1710451;75;674334;-76
2023/06/23 08:20:41;;;;;;;14.30;8.45;;;;;;;28.55;80.83;97588.50;1700889;75;742707;-73
2023/06/23 08:23:14;;;;;;;9.85;8.05;;;;;;;28.87;83.38;97589.88;1710427;75;677899;-72
2023/06/23 08:25:44;;;;;;;11.50;8.45;;;;;;;28.64;80.55;97589.75;1701133;75;761473;-77
2023/06/23 08:28:14;;;;;;;13.10;10.65;;;;;;;28.28;77.79;97599.28;1709767;75;742113;-76
2023/06/23 08:30:44;;;;;;;15.60;9.90;;;;;;;28.12;82.12;97587.63;1700902;75;749880;-76
2023/06/23 08:33:15;;;;;;;21.40;10.30;;;;;;;27.96;78.25;97590.06;1709980;75;673499;-76
2023/06/23 08:35:46;;;;;;;13.30;9.00;;;;;;;28.27;77.60;97587.28;1701409;75;754413;-77
2023/06/23 08:38:18;;;;;;;20.40;10.55;;;;;;;28.28;78.55;97591.56;1695960;75;1985027;-75
2023/06/23 08:40:50;;;;;;;18.90;10.95;;;;;;;28.42;78.78;97586.88;1701878;75;734153;-75
2023/06/23 08:43:25;;;;;;;15.70;9.90;;;;;;;28.65;78.29;97582.78;1710823;75;690409;-75
2023/06/23 08:45:59;;;;;;;15.80;10.05;;;;;;;28.59;77.65;97577.47;1702616;75;751225;-76
2023/06/23 08:48:32;;;;;;;16.00;10.20;;;;;;;28.84;77.65;97579.84;1708350;75;995052;-75
2023/06/23 08:51:05;;;;;;;12.90;9.65;;;;;;;28.48;76.52;97578.16;1702191;75;746239;-75
2023/06/23 08:53:38;;;;;;;11.10;8.90;;;;;;;28.71;75.71;97571.91;1695980;75;1934228;-76
2023/06/23 08:56:10;;;;;;;9.00;6.90;;;;;;;28.97;74.51;97566.53;1701565;75;750406;-75
2023/06/23 08:58:40;;;;;;;12.40;8.50;;;;;;;28.94;75.38;97564.94;1710955;75;671116;-76
2023/06/23 09:01:10;;;;;;;8.40;7.10;;;;;;;29.24;71.54;97554.88;1698513;75;950928;-74
2023/06/23 09:03:40;;;;;;;8.85;7.60;;;;;;;29.37;72.15;97548.69;1710018;75;679958;-78
2023/06/23 09:06:11;;;;;;;9.50;7.40;;;;;;;29.41;71.69;97546.09;1699510;75;840179;-73
2023/06/23 09:08:43;;;;;;;8.30;5.90;;;;;;;29.70;71.46;97554.28;1709652;75;681122;-74
2023/06/23 09:11:14;;;;;;;8.90;7.05;;;;;;;29.31;73.24;97554.66;1701595;75;747227;-75
2023/06/23 09:13:47;;;;;;;10.30;7.90;;;;;;;29.59;74.49;97554.97;1709732;75;673647;-75
2023/06/23 09:16:20;;;;;;;11.45;8.50;;;;;;;29.47;75.59;97546.50;1701466;75;751609;-75
2023/06/23 09:18:51;;;;;;;9.50;8.00;;;;;;;29.99;74.57;97541.91;1710572;75;681009;-74
2023/06/23 09:21:23;;;;;;;7.30;6.60;;;;;;;30.25;72.96;97551.25;1701402;75;741519;-76
2023/06/23 09:24:07;;;;;;;8.25;6.15;;;;;;;30.19;71.75;97545.22;1710065;75;676937;-75
2023/06/23 09:26:48;;;;;;;10.30;6.85;;;;;;;30.33;70.89;97551.75;1700509;75;758608;-77
2023/06/23 09:29:20;;;;;;;10.95;7.95;;;;;;;30.18;73.44;97568.41;1702059;75;697143;-74
2023/06/23 09:31:52;;;;;;;10.60;8.10;;;;;;;30.21;74.94;97556.63;1709789;75;676044;-76
2023/06/23 09:34:29;;;;;;;10.00;7.70;;;;;;;30.48;72.62;97553.31;1700872;75;712635;-72
2023/06/23 09:37:12;;;;;;;9.00;7.00;;;;;;;30.91;70.30;97547.31;1709452;75;698316;-77
2023/06/23 09:39:49;;;;;;;11.95;8.25;;;;;;;30.64;65.66;97547.84;1700558;75;742055;-76
2023/06/23 09:42:19;;;;;;;;;;;;;;;30.79;66.92;97546.59;1701787;75;676711;-77
2023/06/23 09:44:51;;;;;;;8.40;7.50;;;;;;;30.59;65.73;97540.50;1709270;75;707081;-77
2023/06/23 09:47:22;;;;;;;8.20;5.70;;;;;;;31.10;66.96;97542.69;1701748;75;680934;-77
2023/06/23 09:49:53;;;;;;;6.10;5.50;;;;;;;31.19;67.08;97531.19;1710328;75;676956;-76
2023/06/23 09:52:28;;;;;;;5.90;5.10;;;;;;;31.26;65.42;97532.28;1701778;75;677457;-74
2023/06/23 09:55:01;;;;;;;7.80;5.20;;;;;;;31.21;66.21;97527.75;1709495;75;676531;-78
2023/06/23 09:57:33;;;;;;;11.80;7.50;;;;;;;30.77;68.61;97526.69;1702137;75;678160;-77
2023/06/23 10:00:05;;;;;;;13.20;8.30;;;;;;;31.21;66.60;97522.81;1710446;75;674820;-76
2023/06/23 10:02:36;;;;;;;8.90;7.10;;;;;;;31.35;66.44;97516.50;1701193;75;723721;-76
2023/06/23 10:05:08;;;;;;;9.65;7.00;;;;;;;31.65;63.97;97519.50;1709419;75;690334;-74
2023/06/23 10:07:38;;;;;;;8.60;5.80;;;;;;;32.17;60.87;97515.91;1701291;75;761333;-76
2023/06/23 10:10:12;;;;;;;13.35;7.50;;;;;;;31.18;62.00;97520.53;1710409;75;673348;-76
2023/06/23 10:12:42;;;;;;;10.00;7.30;;;;;;;31.08;63.74;97505.81;1701816;75;701828;-76
2023/06/23 10:15:16;;;;;;;7.20;6.40;;;;;;;31.54;61.09;97492.78;1708862;75;729420;-75
2023/06/23 10:17:47;;;;;;;8.80;6.00;;;;;;;31.80;61.19;97487.78;1700831;75;748199;-76
2023/06/23 10:20:17;;;;;;;9.80;6.50;;;;;;;32.08;58.41;97488.53;1710382;75;679759;-73
2023/06/23 10:22:49;;;;;;;9.25;7.35;;;;;;;32.09;58.62;97480.75;1700836;75;757274;-75
2023/06/23 10:25:24;;;;;;;8.10;6.00;;;;;;;32.09;58.96;97473.00;1709636;75;678348;-77
2023/06/23 10:27:57;;;;;;;7.20;5.10;;;;;;;32.23;59.69;97467.31;1701251;75;746780;-78
2023/06/23 10:30:30;;;;;;;8.20;5.90;;;;;;;32.09;58.55;97469.44;1708789;75;847077;-74
2023/06/23 10:33:02;;;;;;;9.35;7.00;;;;;;;32.05;56.99;97461.47;1701109;75;744856;-79
2023/06/23 10:35:35;;;;;;;5.30;4.50;;;;;;;32.72;56.70;97454.84;1710105;75;694925;-77
2023/06/23 10:38:07;;;;;;;10.15;6.05;;;;;;;32.27;57.08;97459.03;1700513;75;772328;-77
2023/06/23 10:40:42;;;;;;;11.50;6.90;;;;;;;32.05;58.63;97458.66;1708752;75;788731;-76
2023/06/23 10:43:15;;;;;;;8.00;5.90;;;;;;;32.84;57.32;97463.94;1701431;75;737816;-75
2023/06/23 10:45:46;;;;;;;7.80;6.70;;;;;;;32.54;54.30;97458.25;1709294;75;763831;-79
2023/06/23 10:48:16;;;;;;;12.70;7.40;;;;;;;32.05;54.11;97448.03;1701270;75;752416;-77
2023/06/23 10:50:48;;;;;;;9.10;6.10;;;;;;;32.35;55.46;97448.13;1709994;75;691531;-79
2023/06/23 10:53:21;;;;;;;10.45;6.95;;;;;;;32.09;55.61;97453.19;1701430;75;748168;-78
2023/06/23 10:55:59;;;;;;;11.40;6.50;;;;;;;31.81;55.66;97441.84;1709908;75;679480;-76
2023/06/23 10:58:30;;;;;;;11.60;6.40;;;;;;;31.76;56.76;97447.94;1700955;75;746482;-73
2023/06/23 11:01:03;;;;;;;8.80;5.70;;;;;;;32.15;54.34;97455.59;1709887;75;680098;-75
2023/06/23 11:03:35;;;;;;;7.90;5.35;;;;;;;32.54;53.99;97458.25;1700573;75;754435;-77
2023/06/23 11:06:09;;;;;;;6.70;4.90;;;;;;;32.77;52.87;97460.06;1709503;75;676381;-77
2023/06/23 11:08:42;;;;;;;9.20;6.00;;;;;;;32.61;53.76;97470.63;1697788;75;974846;-78
2023/06/23 11:11:16;;;;;;;7.40;5.80;;;;;;;32.40;52.92;97468.84;1708187;75;834879;-77
2023/06/23 11:13:51;;;;;;;8.60;6.20;;;;;;;31.85;53.67;97483.78;1701167;75;744717;-76
2023/06/23 11:16:30;;;;;;;11.80;7.10;;;;;;;31.20;57.05;97521.38;1701643;75;712684;-72
2023/06/23 11:19:02;;;;;;;13.10;3.80;;;;;;;28.04;53.23;97529.47;1710247;75;678513;-76
2023/06/23 11:21:40;;;;;;;10.40;3.70;;;;;;;27.17;54.18;97552.91;1699902;75;848292;-76
2023/06/23 11:24:16;;;;;;;12.50;3.90;;;;;;;26.38;55.16;97566.72;1710503;75;682394;-78
2023/06/23 11:27:04;;;;;;;27.50;4.40;;;;;;;25.19;56.04;97589.16;1701338;75;735459;-78
2023/06/23 11:29:34;;;;;;;;;;;;;;;24.00;59.06;97550.69;1701933;75;683234;-72
2023/06/23 11:32:21;;;;;;;18.80;3.30;;;;;;;22.91;60.30;97582.50;1709796;75;676581;-75
2023/06/23 11:37:34;;;;;;;11.50;3.30;;;;;;;22.86;62.08;97584.19;1711743;75;697846;-73
2023/06/23 11:40:08;;;;;;;11.35;3.00;;;;;;;22.69;64.00;97586.84;1703427;75;698277;-76
2023/06/23 11:42:39;;;;;;;13.20;3.40;;;;;;;22.61;65.86;97600.03;1711341;75;676956;-74
2023/06/23 11:45:13;;;;;;;6.50;3.10;;;;;;;22.88;65.19;97595.53;1704028;75;679884;-74
2023/06/23 11:47:43;;;;;;;7.10;3.20;;;;;;;22.99;67.26;97580.44;1712249;75;674854;-72
2023/06/23 11:50:14;;;;;;;9.40;2.95;;;;;;;22.65;69.72;97590.00;1703794;75;688581;-73